Latest Weather Observations for Amberley

IDQ60901

Issued at 6:01 pm EST Saturday 30 May 2015 (issued every 10 minutes, with the page automatically refreshed every 10 minutes)

About weather observations | Map of Brisbane area stations | Latest observations for Brisbane area | Other Formats
Station Details ID: 040004 Name: AMBERLEY AMO Lat: -27.63 Lon: 152.71 Height: 24.2 m
Data from the previous 72 hours. | See also: Recent months at Amberley
Date/Time
EST
Tmp

°C
App
Tmp
°C
Dew
Point
°C
Rel
Hum
%
Delta-T

°C
Wind Press
QNH
hPa
Press
MSL
hPa
Rain
since
9 am
mm
Dir
 
Spd
km/h
Gust
km/h
Spd
kts
Gust
kts
30/05:30pm 21.3 21.7 15.2 68 3.6 NNE 7 9 4 5 1018.1 - 0.0
30/05:00pm 23.2 23.5 15.1 60 4.8 NNE 7 9 4 5 1018.1 - 0.0
30/04:30pm 24.9 26.0 14.7 53 6.1 NNE 2 7 1 4 1017.9 - 0.0
30/04:00pm 25.6 25.0 14.7 51 6.5 NNE 11 13 6 7 1017.8 - 0.0
30/03:30pm 26.0 25.2 14.0 47 7.1 NNE 11 15 6 8 1017.8 - 0.0
30/03:00pm 26.3 25.2 14.4 48 7.1 N 13 19 7 10 1017.7 1017.6 0.0
30/02:30pm 26.5 26.3 14.7 48 7.1 N 9 15 5 8 1017.8 - 0.0
30/02:00pm 26.8 25.5 13.8 44 7.7 WNW 13 19 7 10 1018.0 - 0.0
30/01:30pm 26.2 24.6 13.8 46 7.3 NW 15 22 8 12 1018.4 - 0.0
30/01:00pm 26.2 25.3 13.8 46 7.3 NW 11 17 6 9 1019.0 - 0.0
30/12:30pm 25.8 24.5 13.7 47 7.1 NW 13 17 7 9 1019.5 - 0.0
30/12:00pm 25.2 24.8 15.2 54 6.0 NNW 11 17 6 9 1019.9 1019.8 0.0
30/11:30am 24.2 23.7 15.0 56 5.5 NW 11 15 6 8 1020.5 - 0.0
30/11:00am 23.4 23.8 15.4 60 4.8 NW 7 15 4 8 1021.2 - 0.0
30/10:00am 21.6 21.5 15.0 66 3.9 NW 9 15 5 8 1022.6 - 0.0
30/08:52am 16.2 17.9 15.2 94 0.6 CALM 0 0 0 0 1023.0 - 0.0
30/08:49am 16.2 17.9 15.2 94 0.6 CALM 0 0 0 0 1023.0 - 0.0
30/08:00am 13.7 13.9 13.2 97 0.3 WSW 4 9 2 5 1022.9 - 0.0
30/07:07am 12.0 12.4 11.4 96 0.3 CALM 0 0 0 0 1022.7 - 0.0
30/07:00am 11.8 11.8 11.2 96 0.3 WSW 2 7 1 4 1022.7 - 0.0
30/06:48am 11.5 10.7 11.1 97 0.2 WSW 6 7 3 4 1022.6 - 0.0
30/06:30am 11.5 10.5 11.1 97 0.2 WSW 7 7 4 4 1022.4 - 0.0
30/05:44am 11.6 10.8 11.2 97 0.2 WSW 6 9 3 5 1021.8 - 0.0
30/05:37am 11.8 11.1 11.4 97 0.2 WSW 6 7 3 4 1021.8 - 0.0
30/05:30am 11.3 10.5 10.9 97 0.2 W 6 7 3 4 1021.8 - 0.0
30/05:00am 11.1 9.7 10.9 99 0.1 NW 9 11 5 6 1021.4 - 0.0
30/04:30am 11.6 12.0 11.2 97 0.2 CALM 0 0 0 0 1021.2 - 0.0
30/04:00am 11.5 11.9 11.3 99 0.1 CALM 0 0 0 0 1021.3 - 0.0
30/03:30am 12.9 12.5 12.5 97 0.2 SSW 6 7 3 4 1021.5 - 0.0
30/03:04am 11.6 12.0 11.4 99 0.1 CALM 0 0 0 0 1021.4 - 0.0
30/03:00am 11.8 12.3 11.6 99 0.1 CALM 0 0 0 0 1021.3 1021.3 0.0
30/02:30am 12.5 12.4 12.1 97 0.2 NW 4 9 2 5 1021.4 - 0.0
30/02:00am 13.3 14.2 12.9 97 0.2 CALM 0 0 0 0 1021.5 - 0.0
30/01:30am 13.8 14.1 13.4 97 0.2 NNW 4 7 2 4 1021.8 - 0.0
30/01:00am 13.5 13.1 13.0 97 0.3 NNW 7 7 4 4 1021.9 - 0.0
30/12:52am 13.7 13.6 13.3 97 0.2 NNW 6 7 3 4 1022.0 - 0.0
30/12:30am 14.3 14.2 13.8 97 0.3 NW 7 9 4 5 1022.2 - 0.0
30/12:10am 14.4 14.3 14.0 97 0.2 NNW 7 7 4 4 1022.2 - 0.0
 
Date/Time
EST
Tmp

°C
App
Tmp
°C
Dew
Point
°C
Rel
Hum
%
Delta-T

°C
Wind Press
QNH
hPa
Press
MSL
hPa
Rain
since
9 am
mm
Dir
 
Spd
km/h
Gust
km/h
Spd
kts
Gust
kts
29/11:38pm 14.2 15.1 14.0 99 0.1 ESE 2 6 1 3 1022.5 - 0.0
29/11:30pm 14.9 15.1 14.2 96 0.4 ESE 6 6 3 3 1022.5 - 0.0
29/11:00pm 14.7 16.0 14.2 97 0.3 CALM 0 0 0 0 1022.7 - 0.0
29/10:30pm 15.8 17.4 14.9 94 0.5 CALM 0 0 0 0 1022.7 - 0.0
29/10:00pm 15.9 17.5 14.9 94 0.6 CALM 0 0 0 0 1022.6 - 0.0
29/09:30pm 16.3 18.0 15.1 93 0.7 CALM 0 0 0 0 1022.5 - 0.0
29/09:00pm 16.2 17.1 15.2 94 0.6 ENE 4 7 2 4 1022.5 1022.5 0.0
29/08:30pm 16.3 18.0 15.1 93 0.7 CALM 0 0 0 0 1022.3 - 0.0
29/07:30pm 17.9 18.7 15.9 88 1.2 SE 6 7 3 4 1022.4 - 0.0
29/07:00pm 18.8 19.5 15.6 82 1.9 E 6 7 3 4 1022.3 - 0.0
29/06:30pm 18.0 18.7 15.6 86 1.4 E 6 9 3 5 1022.0 - 0.0
29/05:30pm 20.7 21.1 15.3 71 3.2 E 7 7 4 4 1021.5 - 0.0
29/05:00pm 22.3 23.1 15.8 66 3.9 ENE 6 7 3 4 1021.3 - 0.0
29/04:30pm 23.9 25.0 15.6 59 5.0 NE 4 7 2 4 1021.1 - 0.0
29/04:00pm 23.0 23.5 15.1 61 4.7 N 6 9 3 5 1021.0 - 0.0
29/03:30pm 23.9 22.6 13.6 52 6.0 N 13 17 7 9 1020.9 - 0.0
29/03:00pm 25.1 23.8 13.7 49 6.7 N 13 19 7 10 1021.0 1021.0 0.0
29/02:30pm 24.6 22.8 13.4 49 6.5 NNW 15 20 8 11 1021.1 - 0.0
29/02:00pm 24.7 22.8 13.1 48 6.7 NNW 15 24 8 13 1021.2 - 0.0
29/01:30pm 24.2 22.2 13.8 52 6.1 NNW 17 20 9 11 1021.3 - 0.0
29/01:00pm 24.3 22.6 13.7 51 6.2 NW 15 24 8 13 1021.3 - 0.0
29/12:30pm 23.4 22.1 14.8 58 5.1 NNW 15 24 8 13 1021.8 - 0.0
29/12:00pm 23.4 22.2 15.0 59 5.0 NNW 15 20 8 11 1022.5 1022.5 0.0
29/11:30am 22.4 22.0 15.1 63 4.3 NW 11 20 6 11 1023.3 - 0.0
29/11:00am 21.5 21.8 14.9 66 3.9 NW 7 13 4 7 1023.7 - 0.0
29/10:30am 20.3 21.3 14.4 69 3.4 NNW 2 7 1 4 1024.0 - 0.0
29/10:00am 18.2 18.7 14.0 76 2.4 WNW 4 11 2 6 1024.6 - 0.0
29/09:30am 16.1 16.7 13.2 83 1.6 SW 2 7 1 4 1025.0 - 0.0
29/09:00am 14.9 14.7 12.9 88 1.1 SW 6 9 3 5 1025.1 1025.0 0.0
29/08:48am 14.6 14.4 13.0 90 0.9 SW 6 9 3 5 1025.2 - 0.0
29/08:36am 14.2 14.6 12.5 89 0.9 WSW 2 7 1 4 1025.1 - 0.0
29/08:30am 13.7 14.4 12.2 91 0.8 CALM 0 7 0 4 1025.3 - 0.0
29/08:10am 12.7 13.2 11.6 93 0.6 CALM 0 6 0 3 1025.2 - 0.0
29/08:00am 11.7 12.1 11.1 96 0.3 CALM 0 4 0 2 1024.7 - 0.0
29/07:30am 10.4 10.3 9.6 95 0.4 CALM 0 0 0 0 1024.3 - 0.0
29/07:00am 9.3 7.9 8.9 97 0.2 WSW 6 9 3 5 1024.6 - 0.0
29/06:30am 9.4 7.4 8.8 96 0.3 SW 9 11 5 6 1024.4 - 0.0
29/06:22am 9.3 7.9 8.7 96 0.3 SW 6 9 3 5 1024.0 - 0.0
29/06:00am 9.0 8.7 8.6 97 0.2 CALM 0 0 0 0 1023.4 1023.4 0.0
29/05:30am 9.0 8.7 8.6 97 0.2 CALM 0 0 0 0 1023.4 - 0.0
29/05:00am 9.0 8.7 8.6 97 0.2 CALM 0 0 0 0 1023.7 - 0.0
29/04:30am 9.5 9.3 8.9 96 0.3 CALM 0 0 0 0 1023.6 - 0.0
29/04:09am 9.6 9.4 9.2 97 0.2 CALM 0 0 0 0 1023.4 - 0.0
29/04:00am 9.4 9.2 9.0 97 0.2 CALM 0 0 0 0 1023.4 - 0.0
29/03:59am 9.4 9.2 9.0 97 0.2 CALM 0 0 0 0 1023.4 - 0.0
29/03:30am 9.0 8.7 8.8 99 0.1 CALM 0 0 0 0 1023.1 - 0.0
29/03:28am 9.4 9.1 8.8 96 0.3 CALM 0 2 0 1 1023.1 - 0.0
29/03:27am 9.4 9.1 8.8 96 0.3 CALM 0 6 0 3 1023.0 - 0.0
29/03:14am 9.6 8.2 8.8 95 0.4 WSW 6 9 3 5 1023.3 - 0.0
29/03:00am 9.5 9.3 8.9 96 0.3 CALM 0 0 0 0 1023.3 1023.3 0.0
29/02:55am 9.6 9.4 9.2 97 0.2 CALM 0 0 0 0 1023.3 - 0.0
29/02:30am 10.1 10.0 9.5 96 0.3 CALM 0 0 0 0 1023.5 - 0.0
29/02:14am 10.2 10.1 9.4 95 0.4 CALM 0 0 0 0 1023.6 - 0.0
29/02:00am 9.6 9.5 9.4 99 0.1 CALM 0 0 0 0 1023.7 - 0.0
29/01:53am 9.8 9.7 9.4 97 0.2 CALM 0 0 0 0 1023.6 - 0.0
29/01:39am 10.2 10.1 9.6 96 0.3 CALM 0 0 0 0 1023.5 - 0.0
29/01:30am 10.1 10.0 9.3 95 0.4 CALM 0 0 0 0 1023.5 - 0.0
29/01:03am 10.4 10.5 10.0 97 0.2 CALM 0 0 0 0 1023.9 - 0.0
29/01:00am 10.2 10.2 9.8 97 0.2 CALM 0 0 0 0 1024.0 - 0.0
29/12:30am 11.3 11.5 10.5 95 0.4 CALM 0 4 0 2 1023.9 - 0.0
29/12:22am 10.8 9.8 10.2 96 0.3 NW 6 7 3 4 1023.9 - 0.0
29/12:00am 11.1 11.4 10.9 99 0.1 CALM 0 7 0 4 1024.0 1024.0 0.0
 
Date/Time
EST
Tmp

°C
App
Tmp
°C
Dew
Point
°C
Rel
Hum
%
Delta-T

°C
Wind Press
QNH
hPa
Press
MSL
hPa
Rain
since
9 am
mm
Dir
 
Spd
km/h
Gust
km/h
Spd
kts
Gust
kts
28/11:50pm 11.1 11.3 10.5 96 0.3 CALM 0 0 0 0 1023.8 - 0.0
28/11:30pm 11.6 11.9 11.0 96 0.3 CALM 0 0 0 0 1024.1 - 0.0
28/11:05pm 11.6 12.0 11.2 97 0.2 CALM 0 0 0 0 1024.4 - 0.0
28/11:00pm 11.7 12.1 11.1 96 0.3 CALM 0 0 0 0 1024.1 - 0.0
28/10:40pm 11.7 12.1 11.3 97 0.2 CALM 0 0 0 0 1024.3 - 0.0
28/10:30pm 11.7 12.1 11.1 96 0.3 CALM 0 0 0 0 1024.0 - 0.0
28/10:03pm 12.1 12.6 11.7 97 0.2 CALM 0 0 0 0 1024.1 - 0.0
28/10:00pm 12.4 13.0 11.8 96 0.3 CALM 0 0 0 0 1024.0 - 0.0
28/09:30pm 12.5 13.2 12.1 97 0.2 CALM 0 0 0 0 1024.1 - 0.0
28/09:25pm 12.5 13.2 12.1 97 0.2 CALM 0 0 0 0 1024.0 - 0.0
28/09:03pm 12.9 13.6 12.3 96 0.3 CALM 0 0 0 0 1024.1 - 0.0
28/09:00pm 12.9 13.7 12.5 97 0.2 CALM 0 0 0 0 1024.1 1024.1 0.0
28/08:30pm 13.1 14.1 13.1 100 0.0 CALM 0 0 0 0 1023.9 - 0.0
28/08:29pm 13.7 14.7 13.2 97 0.3 CALM 0 0 0 0 1023.9 - 0.0
28/08:23pm 13.4 14.3 12.8 96 0.3 CALM 0 0 0 0 1023.8 - 0.0
28/08:11pm 13.5 14.5 13.3 99 0.1 CALM 0 0 0 0 1023.8 - 0.0
28/08:00pm 13.9 15.0 13.4 97 0.3 CALM 0 0 0 0 1023.8 - 0.0
28/07:30pm 14.2 15.2 13.3 94 0.5 CALM 0 0 0 0 1023.4 - 0.0
28/07:00pm 14.7 15.7 13.3 91 0.8 CALM 0 0 0 0 1023.0 - 0.0
28/06:30pm 15.2 16.5 14.1 93 0.6 CALM 0 0 0 0 1022.8 - 0.0
28/06:00pm 16.7 18.0 14.1 85 1.5 CALM 0 0 0 0 1022.5 1022.5 0.0
28/05:30pm 18.2 19.5 14.0 76 2.4 CALM 0 0 0 0 1022.0 - 0.0
28/05:00pm 20.1 21.3 13.8 67 3.6 CALM 0 0 0 0 1021.9 - 0.0
28/04:30pm 21.6 21.8 13.2 59 4.8 N 4 7 2 4 1021.7 - 0.0
28/04:00pm 22.4 21.9 12.5 53 5.6 NNE 7 9 4 5 1021.6 - 0.0
28/03:30pm 22.5 21.5 12.2 52 5.8 N 9 11 5 6 1021.7 - 0.0
28/03:00pm 23.1 22.1 12.4 51 6.1 N 9 15 5 8 1021.6 1021.6 0.0
28/02:30pm 23.5 22.9 12.4 49 6.3 NW 7 15 4 8 1021.7 - 0.0
28/02:00pm 23.0 21.8 12.9 53 5.8 N 11 15 6 8 1021.6 - 0.0
28/01:30pm 22.5 22.3 13.5 56 5.2 N 7 13 4 7 1022.1 - 0.0
28/01:00pm 22.1 22.1 14.2 61 4.6 NNW 7 11 4 6 1022.4 - 0.0
28/12:30pm 22.3 22.0 14.4 61 4.6 WNW 9 17 5 9 1023.2 - 0.0
28/12:00pm 22.1 22.4 14.6 62 4.4 WNW 6 13 3 7 1023.8 1023.8 0.0
28/11:30am 20.8 21.3 15.0 69 3.4 WSW 6 9 3 5 1024.3 - 0.0
28/11:00am 19.2 19.7 15.1 77 2.4 W 6 11 3 6 1024.7 - 0.0
28/10:30am 18.7 19.6 15.1 79 2.1 N 4 9 2 5 1025.1 - 0.0
28/10:23am 18.8 19.7 15.0 78 2.2 NW 4 9 2 5 1025.4 - 0.0
28/10:00am 17.2 18.0 14.8 86 1.4 WSW 4 9 2 5 1025.5 - 0.0
28/09:43am 16.2 17.7 14.6 90 0.9 CALM 0 0 0 0 1025.6 - 0.0
28/09:30am 15.1 16.4 14.0 93 0.6 CALM 0 0 0 0 1025.6 - 0.0
28/09:00am 13.6 13.8 13.2 97 0.2 SW 4 7 2 4 1025.5 1025.4 0.0
28/08:30am 12.5 12.1 12.3 99 0.1 WNW 6 9 3 5 1025.4 - 0.0
28/08:00am 11.7 11.7 11.3 97 0.2 WSW 2 7 1 4 1025.0 - 0.0
28/07:30am 11.4 10.7 11.4 100 0.0 SW 6 7 3 4 1024.8 - 0.0
28/07:00am 10.8 9.8 10.4 97 0.2 SW 6 7 3 4 1024.4 - 0.0
28/06:30am 10.6 9.9 10.2 97 0.2 WSW 4 7 2 4 1023.9 - 0.0
28/06:00am 9.9 9.8 9.5 97 0.2 CALM 0 0 0 0 1023.7 1023.7 0.0
28/05:30am 9.7 9.6 9.3 97 0.2 CALM 0 0 0 0 1023.1 - 0.0
28/05:00am 9.3 9.1 9.1 99 0.1 CALM 0 0 0 0 1023.0 - 0.0
28/04:30am 9.4 9.2 9.0 97 0.2 CALM 0 0 0 0 1023.1 - 0.0
28/04:00am 9.3 9.1 9.1 99 0.1 CALM 0 0 0 0 1023.1 - 0.0
28/03:51am 9.4 9.2 9.0 97 0.2 CALM 0 0 0 0 1023.2 - 0.0
28/03:37am 9.3 9.1 8.9 97 0.2 CALM 0 0 0 0 1023.1 - 0.0
28/03:30am 9.8 9.7 9.4 97 0.2 CALM 0 0 0 0 1023.1 - 0.0
28/03:00am 10.4 10.5 10.2 99 0.1 CALM 0 4 0 2 1023.2 1023.2 0.0
28/02:30am 10.0 7.8 9.4 96 0.3 NW 11 11 6 6 1023.0 - 0.0
28/02:00am 9.6 8.1 9.2 97 0.2 SW 7 9 4 5 1023.2 - 0.0
28/01:51am 10.0 8.9 9.8 99 0.1 SW 6 7 3 4 1023.1 - 0.0
28/01:30am 9.7 8.2 9.3 97 0.2 SW 7 7 4 4 1023.2 - 0.0
28/01:00am 10.1 10.0 9.5 96 0.3 CALM 0 0 0 0 1023.6 - 0.0
28/12:30am 10.6 9.3 9.8 95 0.4 SW 7 9 4 5 1023.6 - 0.0
28/12:00am 11.2 10.1 10.6 96 0.3 SW 7 9 4 5 1023.6 1023.6 0.0
 
Date/Time
EST
Tmp

°C
App
Tmp
°C
Dew
Point
°C
Rel
Hum
%
Delta-T

°C
Wind Press
QNH
hPa
Press
MSL
hPa
Rain
since
9 am
mm
Dir
 
Spd
km/h
Gust
km/h
Spd
kts
Gust
kts
27/11:30pm 11.5 11.9 11.1 97 0.2 CALM 0 0 0 0 1023.6 - 0.0
27/11:00pm 11.2 11.4 10.6 96 0.3 CALM 0 0 0 0 1023.8 - 0.0
27/10:30pm 11.4 11.7 11.0 97 0.2 CALM 0 2 0 1 1023.7 - 0.0
27/10:00pm 11.5 11.9 11.1 97 0.2 CALM 0 7 0 4 1023.5 - 0.0
27/09:30pm 12.0 12.4 11.2 95 0.4 CALM 0 0 0 0 1023.4 - 0.0
27/09:00pm 13.1 13.0 12.2 94 0.5 E 4 7 2 4 1023.4 1023.4 0.0
27/08:30pm 14.9 15.0 13.8 93 0.6 E 6 7 3 4 1023.4 - 0.0
27/08:00pm 15.2 14.9 13.4 89 1.0 E 7 7 4 4 1023.3 - 0.0
27/07:30pm 15.8 15.4 14.0 89 1.0 E 9 11 5 6 1023.2 - 0.0
27/07:00pm 14.8 13.8 12.4 85 1.3 E 9 11 5 6 1022.7 - 0.0
27/06:30pm 16.2 15.4 12.9 81 1.8 E 9 11 5 6 1022.4 - 0.0

Latest Capital City Observations: Canberra | Sydney | Melbourne | Brisbane | Adelaide | Perth | Hobart | Darwin

Other Formats:

Comma delimited format used in spreadsheet applications
http://www.bom.gov.au/fwo/IDQ60901/IDQ60901.94568.axf

JavaScript Object Notation format (JSON) in row-major order
http://www.bom.gov.au/fwo/IDQ60901/IDQ60901.94568.json